sensor_id;sensor_type;location;lat;lon;timestamp;pressure;altitude;pressure_sealevel;temperature
80581;BMP180;1474;51.460;7.150;2023-10-19T05:54:43;98295.00;;;13.30
80581;BMP180;1474;51.460;7.150;2023-10-19T05:57:09;98303.00;;;13.30
80581;BMP180;1474;51.460;7.150;2023-10-19T05:59:35;98301.00;;;13.30
80581;BMP180;1474;51.460;7.150;2023-10-19T06:02:00;98303.00;;;13.00
80581;BMP180;1474;51.460;7.150;2023-10-19T06:04:26;98308.00;;;13.00
80581;BMP180;1474;51.460;7.150;2023-10-19T06:06:52;98311.00;;;13.10
80581;BMP180;1474;51.460;7.150;2023-10-19T07:13:59;98336.00;;;13.50
80581;BMP180;1474;51.460;7.150;2023-10-19T07:16:25;98341.00;;;13.50
80581;BMP180;1474;51.460;7.150;2023-10-19T07:18:57;98349.00;;;13.50
80581;BMP180;1474;51.460;7.150;2023-10-19T07:42:24;98405.00;;;17.80
80581;BMP180;1474;51.460;7.150;2023-10-19T07:44:51;98399.00;;;18.00
80581;BMP180;1474;51.460;7.150;2023-10-19T07:47:17;98410.00;;;18.10
80581;BMP180;1474;51.460;7.150;2023-10-19T07:49:43;98416.00;;;18.20
80581;BMP180;1474;51.460;7.150;2023-10-19T07:52:09;98407.00;;;18.20
80581;BMP180;1474;51.460;7.150;2023-10-19T07:57:05;98406.00;;;18.30
80581;BMP180;1474;51.460;7.150;2023-10-19T07:59:35;98403.00;;;18.30
80581;BMP180;1474;51.460;7.150;2023-10-19T08:02:01;98403.00;;;18.30
80581;BMP180;1474;51.460;7.150;2023-10-19T08:04:30;98398.00;;;18.40
80581;BMP180;1474;51.460;7.150;2023-10-19T08:06:58;98403.00;;;18.40
80581;BMP180;1474;51.460;7.150;2023-10-19T08:09:24;98408.00;;;18.40
80581;BMP180;1474;51.460;7.150;2023-10-19T08:11:52;98412.00;;;18.40
80581;BMP180;1474;51.460;7.150;2023-10-19T08:14:25;98405.00;;;18.40
80581;BMP180;1474;51.460;7.150;2023-10-19T08:16:52;98409.00;;;18.40
80581;BMP180;1474;51.460;7.150;2023-10-19T08:19:18;98409.00;;;18.40
80581;BMP180;1474;51.460;7.150;2023-10-19T08:21:45;98409.00;;;18.50
80581;BMP180;1474;51.460;7.150;2023-10-19T08:24:11;98403.00;;;18.50
80581;BMP180;1474;51.460;7.150;2023-10-19T08:26:44;98405.00;;;18.50
80581;BMP180;1474;51.460;7.150;2023-10-19T08:29:13;98413.00;;;18.50
80581;BMP180;1474;51.460;7.150;2023-10-19T08:31:43;98408.00;;;18.50
80581;BMP180;1474;51.460;7.150;2023-10-19T08:34:11;98412.00;;;18.60
80581;BMP180;1474;51.460;7.150;2023-10-19T08:36:40;98412.00;;;18.60
80581;BMP180;1474;51.460;7.150;2023-10-19T08:39:09;98407.00;;;18.60
80581;BMP180;1474;51.460;7.150;2023-10-19T08:41:38;98413.00;;;18.60
80581;BMP180;1474;51.460;7.150;2023-10-19T08:44:07;98404.00;;;18.60
80581;BMP180;1474;51.460;7.150;2023-10-19T08:46:44;98403.00;;;18.60
80581;BMP180;1474;51.460;7.150;2023-10-19T08:49:15;98403.00;;;18.60
80581;BMP180;1474;51.460;7.150;2023-10-19T08:51:46;98408.00;;;18.60
80581;BMP180;1474;51.460;7.150;2023-10-19T08:54:13;98399.00;;;18.70
80581;BMP180;1474;51.460;7.150;2023-10-19T08:56:42;98402.00;;;18.70
80581;BMP180;1474;51.460;7.150;2023-10-19T08:59:08;98402.00;;;18.70
80581;BMP180;1474;51.460;7.150;2023-10-19T09:01:38;98392.00;;;18.70
80581;BMP180;1474;51.460;7.150;2023-10-19T09:04:04;98396.00;;;18.70
80581;BMP180;1474;51.460;7.150;2023-10-19T09:11:30;98393.00;;;19.60
80581;BMP180;1474;51.460;7.150;2023-10-19T09:13:56;98394.00;;;19.10
80581;BMP180;1474;51.460;7.150;2023-10-19T09:16:23;98384.00;;;19.00
80581;BMP180;1474;51.460;7.150;2023-10-19T09:18:50;98392.00;;;18.90
80581;BMP180;1474;51.460;7.150;2023-10-19T09:21:21;98394.00;;;18.90
80581;BMP180;1474;51.460;7.150;2023-10-19T09:23:51;98395.00;;;19.00
80581;BMP180;1474;51.460;7.150;2023-10-19T09:26:17;98389.00;;;18.90
80581;BMP180;1474;51.460;7.150;2023-10-19T09:28:46;98391.00;;;18.90
80581;BMP180;1474;51.460;7.150;2023-10-19T09:31:17;98388.00;;;18.90
80581;BMP180;1474;51.460;7.150;2023-10-19T09:33:46;98386.00;;;19.00
80581;BMP180;1474;51.460;7.150;2023-10-19T09:36:14;98386.00;;;19.00
80581;BMP180;1474;51.460;7.150;2023-10-19T09:38:50;98390.00;;;19.00
80581;BMP180;1474;51.460;7.150;2023-10-19T09:41:21;98386.00;;;19.00
80581;BMP180;1474;51.460;7.150;2023-10-19T09:43:50;98380.00;;;19.10
80581;BMP180;1474;51.460;7.150;2023-10-19T09:46:43;98376.00;;;19.10
80581;BMP180;1474;51.460;7.150;2023-10-19T09:49:10;98379.00;;;19.10
80581;BMP180;1474;51.460;7.150;2023-10-19T09:51:40;98377.00;;;19.20
80581;BMP180;1474;51.460;7.150;2023-10-19T09:54:34;98379.00;;;19.30
80581;BMP180;1474;51.460;7.150;2023-10-19T09:57:13;98379.00;;;19.30
80581;BMP180;1474;51.460;7.150;2023-10-19T09:59:49;98377.00;;;19.30
80581;BMP180;1474;51.460;7.150;2023-10-19T10:02:16;98375.00;;;19.40
80581;BMP180;1474;51.460;7.150;2023-10-19T10:04:44;98375.00;;;19.30
80581;BMP180;1474;51.460;7.150;2023-10-19T10:07:15;98387.00;;;19.10
80581;BMP180;1474;51.460;7.150;2023-10-19T10:09:44;98383.00;;;19.00
80581;BMP180;1474;51.460;7.150;2023-10-19T10:14:59;98382.00;;;19.00
80581;BMP180;1474;51.460;7.150;2023-10-19T10:17:28;98375.00;;;19.00
80581;BMP180;1474;51.460;7.150;2023-10-19T10:20:04;98370.00;;;19.20
80581;BMP180;1474;51.460;7.150;2023-10-19T10:22:45;98364.00;;;19.20
80581;BMP180;1474;51.460;7.150;2023-10-19T10:25:31;98364.00;;;19.00
80581;BMP180;1474;51.460;7.150;2023-10-19T10:28:03;98358.00;;;19.00
80581;BMP180;1474;51.460;7.150;2023-10-19T10:30:30;98356.00;;;19.00
80581;BMP180;1474;51.460;7.150;2023-10-19T10:32:56;98368.00;;;19.10
80581;BMP180;1474;51.460;7.150;2023-10-19T10:38:08;98363.00;;;19.10
80581;BMP180;1474;51.460;7.150;2023-10-19T10:40:47;98369.00;;;19.10
80581;BMP180;1474;51.460;7.150;2023-10-19T10:43:14;98366.00;;;19.10
80581;BMP180;1474;51.460;7.150;2023-10-19T10:45:41;98359.00;;;19.10
80581;BMP180;1474;51.460;7.150;2023-10-19T10:48:14;98351.00;;;19.20
80581;BMP180;1474;51.460;7.150;2023-10-19T10:50:41;98349.00;;;19.30
80581;BMP180;1474;51.460;7.150;2023-10-19T10:53:14;98356.00;;;19.20
80581;BMP180;1474;51.460;7.150;2023-10-19T10:55:43;98353.00;;;19.30
80581;BMP180;1474;51.460;7.150;2023-10-19T10:58:09;98343.00;;;19.30
80581;BMP180;1474;51.460;7.150;2023-10-19T11:00:42;98347.00;;;19.40
80581;BMP180;1474;51.460;7.150;2023-10-19T11:03:08;98348.00;;;19.40
80581;BMP180;1474;51.460;7.150;2023-10-19T11:05:36;98351.00;;;19.30
80581;BMP180;1474;51.460;7.150;2023-10-19T11:08:09;98345.00;;;19.30
80581;BMP180;1474;51.460;7.150;2023-10-19T11:10:40;98346.00;;;19.30
80581;BMP180;1474;51.460;7.150;2023-10-19T11:13:13;98347.00;;;19.30
80581;BMP180;1474;51.460;7.150;2023-10-19T11:15:49;98337.00;;;19.30
80581;BMP180;1474;51.460;7.150;2023-10-19T11:18:48;98342.00;;;19.30
80581;BMP180;1474;51.460;7.150;2023-10-19T11:21:15;98357.00;;;19.30
80581;BMP180;1474;51.460;7.150;2023-10-19T11:23:50;98363.00;;;19.30
80581;BMP180;1474;51.460;7.150;2023-10-19T11:26:23;98360.00;;;19.30
80581;BMP180;1474;51.460;7.150;2023-10-19T11:29:03;98351.00;;;19.30
80581;BMP180;1474;51.460;7.150;2023-10-19T11:31:35;98336.00;;;19.20
80581;BMP180;1474;51.460;7.150;2023-10-19T11:34:05;98340.00;;;19.20
80581;BMP180;1474;51.460;7.150;2023-10-19T11:36:31;98329.00;;;19.20
80581;BMP180;1474;51.460;7.150;2023-10-19T11:38:59;98324.00;;;19.20
80581;BMP180;1474;51.460;7.150;2023-10-19T11:41:25;98318.00;;;19.20
80581;BMP180;1474;51.460;7.150;2023-10-19T11:43:51;98323.00;;;19.20
80581;BMP180;1474;51.460;7.150;2023-10-19T11:46:17;98320.00;;;19.20
80581;BMP180;1474;51.460;7.150;2023-10-19T11:48:44;98308.00;;;19.20
80581;BMP180;1474;51.460;7.150;2023-10-19T11:51:10;98308.00;;;19.30
80581;BMP180;1474;51.460;7.150;2023-10-19T11:53:41;98303.00;;;19.30
80581;BMP180;1474;51.460;7.150;2023-10-19T11:56:11;98297.00;;;19.30
80581;BMP180;1474;51.460;7.150;2023-10-19T11:58:41;98299.00;;;19.20
80581;BMP180;1474;51.460;7.150;2023-10-19T12:01:09;98296.00;;;19.30
80581;BMP180;1474;51.460;7.150;2023-10-19T12:03:38;98293.00;;;19.30
80581;BMP180;1474;51.460;7.150;2023-10-19T12:06:06;98288.00;;;19.30
80581;BMP180;1474;51.460;7.150;2023-10-19T12:08:36;98287.00;;;19.30
80581;BMP180;1474;51.460;7.150;2023-10-19T12:11:04;98279.00;;;19.30
80581;BMP180;1474;51.460;7.150;2023-10-19T12:13:33;98272.00;;;19.30
80581;BMP180;1474;51.460;7.150;2023-10-19T12:15:58;98269.00;;;19.20
80581;BMP180;1474;51.460;7.150;2023-10-19T12:18:25;98270.00;;;19.20
80581;BMP180;1474;51.460;7.150;2023-10-19T12:20:54;98267.00;;;19.20
80581;BMP180;1474;51.460;7.150;2023-10-19T12:23:25;98281.00;;;19.20
80581;BMP180;1474;51.460;7.150;2023-10-19T12:25:51;98281.00;;;19.20
80581;BMP180;1474;51.460;7.150;2023-10-19T12:28:18;98286.00;;;19.20
80581;BMP180;1474;51.460;7.150;2023-10-19T12:30:44;98280.00;;;19.20
80581;BMP180;1474;51.460;7.150;2023-10-19T12:33:10;98281.00;;;19.20
80581;BMP180;1474;51.460;7.150;2023-10-19T12:35:41;98287.00;;;19.20
80581;BMP180;1474;51.460;7.150;2023-10-19T12:38:18;98289.00;;;19.20
80581;BMP180;1474;51.460;7.150;2023-10-19T12:40:49;98301.00;;;19.20
80581;BMP180;1474;51.460;7.150;2023-10-19T12:43:17;98297.00;;;19.20
80581;BMP180;1474;51.460;7.150;2023-10-19T12:45:52;98304.00;;;19.20
80581;BMP180;1474;51.460;7.150;2023-10-19T12:48:23;98307.00;;;19.20
80581;BMP180;1474;51.460;7.150;2023-10-19T12:50:55;98305.00;;;19.20
80581;BMP180;1474;51.460;7.150;2023-10-19T12:53:22;98301.00;;;19.20
80581;BMP180;1474;51.460;7.150;2023-10-19T12:55:51;98291.00;;;19.20
80581;BMP180;1474;51.460;7.150;2023-10-19T12:58:18;98288.00;;;19.10
80581;BMP180;1474;51.460;7.150;2023-10-19T13:00:46;98280.00;;;19.10
80581;BMP180;1474;51.460;7.150;2023-10-19T13:03:15;98282.00;;;19.20
80581;BMP180;1474;51.460;7.150;2023-10-19T13:05:44;98278.00;;;19.10
80581;BMP180;1474;51.460;7.150;2023-10-19T13:08:14;98264.00;;;19.10
80581;BMP180;1474;51.460;7.150;2023-10-19T13:10:44;98262.00;;;19.20
80581;BMP180;1474;51.460;7.150;2023-10-19T13:13:14;98263.00;;;19.30
80581;BMP180;1474;51.460;7.150;2023-10-19T13:15:43;98264.00;;;19.30
80581;BMP180;1474;51.460;7.150;2023-10-19T13:18:12;98266.00;;;19.30
80581;BMP180;1474;51.460;7.150;2023-10-19T13:20:53;98268.00;;;19.30
80581;BMP180;1474;51.460;7.150;2023-10-19T13:23:20;98270.00;;;19.30
80581;BMP180;1474;51.460;7.150;2023-10-19T13:25:49;98266.00;;;19.30
80581;BMP180;1474;51.460;7.150;2023-10-19T13:28:17;98279.00;;;19.30
80581;BMP180;1474;51.460;7.150;2023-10-19T13:30:53;98278.00;;;19.30
80581;BMP180;1474;51.460;7.150;2023-10-19T13:33:20;98267.00;;;19.30
80581;BMP180;1474;51.460;7.150;2023-10-19T13:35:52;98268.00;;;19.30
80581;BMP180;1474;51.460;7.150;2023-10-19T13:38:19;98282.00;;;19.30
80581;BMP180;1474;51.460;7.150;2023-10-19T13:40:48;98282.00;;;19.30
80581;BMP180;1474;51.460;7.150;2023-10-19T13:43:18;98279.00;;;19.30
80581;BMP180;1474;51.460;7.150;2023-10-19T13:45:46;98270.00;;;19.30
80581;BMP180;1474;51.460;7.150;2023-10-19T13:48:13;98270.00;;;19.30
80581;BMP180;1474;51.460;7.150;2023-10-19T13:50:48;98274.00;;;19.30
80581;BMP180;1474;51.460;7.150;2023-10-19T13:53:17;98273.00;;;19.30
80581;BMP180;1474;51.460;7.150;2023-10-19T13:55:44;98274.00;;;19.30
80581;BMP180;1474;51.460;7.150;2023-10-19T13:58:10;98279.00;;;19.30
80581;BMP180;1474;51.460;7.150;2023-10-19T14:00:37;98273.00;;;19.30
80581;BMP180;1474;51.460;7.150;2023-10-19T14:03:10;98265.00;;;19.30
80581;BMP180;1474;51.460;7.150;2023-10-19T14:05:46;98265.00;;;19.30
80581;BMP180;1474;51.460;7.150;2023-10-19T14:08:17;98258.00;;;19.30
80581;BMP180;1474;51.460;7.150;2023-10-19T14:10:43;98248.00;;;19.30
80581;BMP180;1474;51.460;7.150;2023-10-19T14:13:10;98251.00;;;19.40
80581;BMP180;1474;51.460;7.150;2023-10-19T14:15:40;98247.00;;;19.40
80581;BMP180;1474;51.460;7.150;2023-10-19T14:18:08;98232.00;;;19.40
80581;BMP180;1474;51.460;7.150;2023-10-19T14:20:34;98240.00;;;19.40
80581;BMP180;1474;51.460;7.150;2023-10-19T14:23:01;98238.00;;;19.40
80581;BMP180;1474;51.460;7.150;2023-10-19T14:25:30;98230.00;;;19.40
80581;BMP180;1474;51.460;7.150;2023-10-19T14:27:57;98229.00;;;19.40
80581;BMP180;1474;51.460;7.150;2023-10-19T14:30:28;98219.00;;;19.40
80581;BMP180;1474;51.460;7.150;2023-10-19T14:32:55;98215.00;;;19.40
80581;BMP180;1474;51.460;7.150;2023-10-19T14:35:23;98210.00;;;19.40
80581;BMP180;1474;51.460;7.150;2023-10-19T14:37:52;98217.00;;;19.30
80581;BMP180;1474;51.460;7.150;2023-10-19T14:40:24;98198.00;;;19.30
80581;BMP180;1474;51.460;7.150;2023-10-19T14:42:53;98198.00;;;19.30
80581;BMP180;1474;51.460;7.150;2023-10-19T14:45:26;98196.00;;;19.30
80581;BMP180;1474;51.460;7.150;2023-10-19T14:47:55;98195.00;;;19.30
80581;BMP180;1474;51.460;7.150;2023-10-19T14:50:22;98198.00;;;19.30
80581;BMP180;1474;51.460;7.150;2023-10-19T14:52:51;98191.00;;;19.30
80581;BMP180;1474;51.460;7.150;2023-10-19T14:55:18;98182.00;;;19.30
80581;BMP180;1474;51.460;7.150;2023-10-19T14:57:49;98180.00;;;19.30
80581;BMP180;1474;51.460;7.150;2023-10-19T15:00:17;98177.00;;;19.30
80581;BMP180;1474;51.460;7.150;2023-10-19T15:02:50;98165.00;;;19.20
80581;BMP180;1474;51.460;7.150;2023-10-19T15:05:18;98159.00;;;19.20
80581;BMP180;1474;51.460;7.150;2023-10-19T15:07:46;98155.00;;;19.20
80581;BMP180;1474;51.460;7.150;2023-10-19T15:10:23;98151.00;;;19.20
80581;BMP180;1474;51.460;7.150;2023-10-19T15:12:49;98140.00;;;19.20
80581;BMP180;1474;51.460;7.150;2023-10-19T15:15:16;98150.00;;;19.20
80581;BMP180;1474;51.460;7.150;2023-10-19T15:17:46;98148.00;;;19.20
80581;BMP180;1474;51.460;7.150;2023-10-19T15:20:14;98142.00;;;19.20
80581;BMP180;1474;51.460;7.150;2023-10-19T15:22:44;98142.00;;;19.20
80581;BMP180;1474;51.460;7.150;2023-10-19T15:25:12;98148.00;;;19.20
80581;BMP180;1474;51.460;7.150;2023-10-19T15:27:40;98150.00;;;19.20
80581;BMP180;1474;51.460;7.150;2023-10-19T15:30:08;98151.00;;;19.10
80581;BMP180;1474;51.460;7.150;2023-10-19T15:32:38;98139.00;;;19.10
80581;BMP180;1474;51.460;7.150;2023-10-19T15:35:09;98139.00;;;19.10
80581;BMP180;1474;51.460;7.150;2023-10-19T15:37:38;98137.00;;;19.10
80581;BMP180;1474;51.460;7.150;2023-10-19T15:40:05;98137.00;;;19.10
80581;BMP180;1474;51.460;7.150;2023-10-19T15:42:31;98125.00;;;19.10
80581;BMP180;1474;51.460;7.150;2023-10-19T15:44:56;98116.00;;;19.10
80581;BMP180;1474;51.460;7.150;2023-10-19T15:47:23;98119.00;;;19.10
80581;BMP180;1474;51.460;7.150;2023-10-19T15:49:51;98103.00;;;19.10
80581;BMP180;1474;51.460;7.150;2023-10-19T15:52:24;98110.00;;;19.20
80581;BMP180;1474;51.460;7.150;2023-10-19T15:54:51;98101.00;;;19.20
80581;BMP180;1474;51.460;7.150;2023-10-19T15:57:18;98097.00;;;19.20
80581;BMP180;1474;51.460;7.150;2023-10-19T15:59:44;98083.00;;;19.20
80581;BMP180;1474;51.460;7.150;2023-10-19T16:02:11;98080.00;;;19.20
80581;BMP180;1474;51.460;7.150;2023-10-19T16:04:39;98084.00;;;19.20
80581;BMP180;1474;51.460;7.150;2023-10-19T16:07:06;98088.00;;;19.20
80581;BMP180;1474;51.460;7.150;2023-10-19T16:09:32;98095.00;;;19.20
80581;BMP180;1474;51.460;7.150;2023-10-19T16:11:58;98089.00;;;19.10
80581;BMP180;1474;51.460;7.150;2023-10-19T16:14:23;98090.00;;;19.10
80581;BMP180;1474;51.460;7.150;2023-10-19T16:16:50;98086.00;;;19.10
80581;BMP180;1474;51.460;7.150;2023-10-19T16:19:16;98085.00;;;19.10
80581;BMP180;1474;51.460;7.150;2023-10-19T16:21:43;98083.00;;;19.10
80581;BMP180;1474;51.460;7.150;2023-10-19T16:24:10;98079.00;;;19.10
80581;BMP180;1474;51.460;7.150;2023-10-19T16:26:37;98076.00;;;19.10
80581;BMP180;1474;51.460;7.150;2023-10-19T16:29:04;98078.00;;;19.10
80581;BMP180;1474;51.460;7.150;2023-10-19T16:31:42;98075.00;;;19.10
80581;BMP180;1474;51.460;7.150;2023-10-19T16:34:12;98081.00;;;19.20
80581;BMP180;1474;51.460;7.150;2023-10-19T16:36:39;98080.00;;;19.20
80581;BMP180;1474;51.460;7.150;2023-10-19T16:39:09;98079.00;;;19.20
80581;BMP180;1474;51.460;7.150;2023-10-19T16:41:36;98084.00;;;19.20
80581;BMP180;1474;51.460;7.150;2023-10-19T16:44:03;98079.00;;;19.20
80581;BMP180;1474;51.460;7.150;2023-10-19T16:46:34;98090.00;;;19.20
80581;BMP180;1474;51.460;7.150;2023-10-19T16:49:02;98087.00;;;19.10
80581;BMP180;1474;51.460;7.150;2023-10-19T16:51:30;98078.00;;;19.10
80581;BMP180;1474;51.460;7.150;2023-10-19T16:53:56;98075.00;;;19.10
80581;BMP180;1474;51.460;7.150;2023-10-19T16:56:22;98067.00;;;19.20
80581;BMP180;1474;51.460;7.150;2023-10-19T16:58:48;98073.00;;;19.20
80581;BMP180;1474;51.460;7.150;2023-10-19T17:01:13;98085.00;;;19.10
80581;BMP180;1474;51.460;7.150;2023-10-19T17:03:40;98082.00;;;19.10
80581;BMP180;1474;51.460;7.150;2023-10-19T17:06:12;98082.00;;;19.10
80581;BMP180;1474;51.460;7.150;2023-10-19T17:08:39;98076.00;;;19.10
80581;BMP180;1474;51.460;7.150;2023-10-19T17:11:06;98087.00;;;19.00
80581;BMP180;1474;51.460;7.150;2023-10-19T17:13:34;98085.00;;;19.00
80581;BMP180;1474;51.460;7.150;2023-10-19T17:16:00;98079.00;;;19.00
80581;BMP180;1474;51.460;7.150;2023-10-19T17:18:28;98085.00;;;19.00
80581;BMP180;1474;51.460;7.150;2023-10-19T17:20:55;98085.00;;;19.00
80581;BMP180;1474;51.460;7.150;2023-10-19T17:23:20;98074.00;;;19.00
80581;BMP180;1474;51.460;7.150;2023-10-19T17:25:46;98069.00;;;19.00
80581;BMP180;1474;51.460;7.150;2023-10-19T17:28:12;98063.00;;;19.00
80581;BMP180;1474;51.460;7.150;2023-10-19T17:30:38;98073.00;;;19.00
80581;BMP180;1474;51.460;7.150;2023-10-19T17:33:05;98070.00;;;18.90
80581;BMP180;1474;51.460;7.150;2023-10-19T17:35:34;98069.00;;;18.90
80581;BMP180;1474;51.460;7.150;2023-10-19T17:38:01;98085.00;;;18.90
80581;BMP180;1474;51.460;7.150;2023-10-19T17:40:28;98089.00;;;18.90
80581;BMP180;1474;51.460;7.150;2023-10-19T17:42:54;98071.00;;;18.90
80581;BMP180;1474;51.460;7.150;2023-10-19T17:45:20;98073.00;;;18.90
80581;BMP180;1474;51.460;7.150;2023-10-19T17:47:46;98066.00;;;18.90
80581;BMP180;1474;51.460;7.150;2023-10-19T17:50:11;98059.00;;;18.90
80581;BMP180;1474;51.460;7.150;2023-10-19T17:52:39;98056.00;;;18.90
80581;BMP180;1474;51.460;7.150;2023-10-19T17:55:05;98051.00;;;18.90
80581;BMP180;1474;51.460;7.150;2023-10-19T17:57:33;98047.00;;;18.90
80581;BMP180;1474;51.460;7.150;2023-10-19T17:59:59;98050.00;;;18.90
80581;BMP180;1474;51.460;7.150;2023-10-19T18:02:26;98045.00;;;18.90
80581;BMP180;1474;51.460;7.150;2023-10-19T18:04:52;98048.00;;;18.90
80581;BMP180;1474;51.460;7.150;2023-10-19T18:07:19;98041.00;;;18.90
80581;BMP180;1474;51.460;7.150;2023-10-19T18:09:46;98034.00;;;18.90
80581;BMP180;1474;51.460;7.150;2023-10-19T18:12:12;98046.00;;;18.90
80581;BMP180;1474;51.460;7.150;2023-10-19T18:14:40;98034.00;;;18.90
80581;BMP180;1474;51.460;7.150;2023-10-19T18:17:06;98047.00;;;18.90
80581;BMP180;1474;51.460;7.150;2023-10-19T18:19:35;98046.00;;;18.90
80581;BMP180;1474;51.460;7.150;2023-10-19T18:22:02;98066.00;;;18.90
80581;BMP180;1474;51.460;7.150;2023-10-19T18:24:28;98065.00;;;18.80
80581;BMP180;1474;51.460;7.150;2023-10-19T18:26:59;98062.00;;;18.80
80581;BMP180;1474;51.460;7.150;2023-10-19T18:29:25;98050.00;;;18.80
80581;BMP180;1474;51.460;7.150;2023-10-19T18:31:51;98044.00;;;18.80
80581;BMP180;1474;51.460;7.150;2023-10-19T18:34:16;98044.00;;;18.80
80581;BMP180;1474;51.460;7.150;2023-10-19T18:36:45;98026.00;;;18.80
80581;BMP180;1474;51.460;7.150;2023-10-19T18:39:10;98024.00;;;18.80
80581;BMP180;1474;51.460;7.150;2023-10-19T18:41:42;98022.00;;;18.80
80581;BMP180;1474;51.460;7.150;2023-10-19T18:44:08;98021.00;;;18.80
80581;BMP180;1474;51.460;7.150;2023-10-19T18:46:35;98015.00;;;18.90
80581;BMP180;1474;51.460;7.150;2023-10-19T18:49:01;98017.00;;;18.90
80581;BMP180;1474;51.460;7.150;2023-10-19T18:51:28;98027.00;;;18.90
80581;BMP180;1474;51.460;7.150;2023-10-19T18:53:54;98026.00;;;18.90
80581;BMP180;1474;51.460;7.150;2023-10-19T18:56:27;98031.00;;;18.90
80581;BMP180;1474;51.460;7.150;2023-10-19T18:58:53;98022.00;;;18.90
80581;BMP180;1474;51.460;7.150;2023-10-19T19:01:18;98029.00;;;19.00
80581;BMP180;1474;51.460;7.150;2023-10-19T19:03:44;98016.00;;;18.90
80581;BMP180;1474;51.460;7.150;2023-10-19T19:06:10;98014.00;;;19.00
80581;BMP180;1474;51.460;7.150;2023-10-19T19:08:39;98017.00;;;18.90
80581;BMP180;1474;51.460;7.150;2023-10-19T19:11:11;98006.00;;;19.00
80581;BMP180;1474;51.460;7.150;2023-10-19T19:13:38;98001.00;;;18.90
80581;BMP180;1474;51.460;7.150;2023-10-19T19:16:04;97994.00;;;19.00
80581;BMP180;1474;51.460;7.150;2023-10-19T19:18:30;97990.00;;;19.00
80581;BMP180;1474;51.460;7.150;2023-10-19T19:20:56;97985.00;;;18.90
80581;BMP180;1474;51.460;7.150;2023-10-19T19:23:23;97986.00;;;18.90
80581;BMP180;1474;51.460;7.150;2023-10-19T19:25:50;97985.00;;;18.90
80581;BMP180;1474;51.460;7.150;2023-10-19T19:28:16;97987.00;;;18.90
80581;BMP180;1474;51.460;7.150;2023-10-19T19:30:42;97987.00;;;18.90
80581;BMP180;1474;51.460;7.150;2023-10-19T19:33:09;97987.00;;;18.80
80581;BMP180;1474;51.460;7.150;2023-10-19T19:35:35;97981.00;;;18.80
80581;BMP180;1474;51.460;7.150;2023-10-19T19:38:01;97984.00;;;18.80
80581;BMP180;1474;51.460;7.150;2023-10-19T19:40:29;97988.00;;;18.80
80581;BMP180;1474;51.460;7.150;2023-10-19T19:42:56;97993.00;;;18.80
80581;BMP180;1474;51.460;7.150;2023-10-19T19:45:25;97980.00;;;18.80
80581;BMP180;1474;51.460;7.150;2023-10-19T19:47:53;97963.00;;;18.80
80581;BMP180;1474;51.460;7.150;2023-10-19T19:50:19;97974.00;;;18.80
80581;BMP180;1474;51.460;7.150;2023-10-19T19:52:46;97973.00;;;18.80
80581;BMP180;1474;51.460;7.150;2023-10-19T19:55:13;97989.00;;;18.80
80581;BMP180;1474;51.460;7.150;2023-10-19T19:57:42;97987.00;;;18.80
80581;BMP180;1474;51.460;7.150;2023-10-19T20:00:11;97995.00;;;18.70
80581;BMP180;1474;51.460;7.150;2023-10-19T20:02:42;97988.00;;;18.80
80581;BMP180;1474;51.460;7.150;2023-10-19T20:05:11;97994.00;;;18.70
80581;BMP180;1474;51.460;7.150;2023-10-19T20:07:37;97980.00;;;18.70
80581;BMP180;1474;51.460;7.150;2023-10-19T20:10:09;97984.00;;;18.70
80581;BMP180;1474;51.460;7.150;2023-10-19T20:12:40;97979.00;;;18.70
80581;BMP180;1474;51.460;7.150;2023-10-19T20:15:07;97986.00;;;18.70
80581;BMP180;1474;51.460;7.150;2023-10-19T20:17:37;97992.00;;;18.70
80581;BMP180;1474;51.460;7.150;2023-10-19T20:20:05;97992.00;;;18.70
80581;BMP180;1474;51.460;7.150;2023-10-19T20:22:34;97980.00;;;18.70
80581;BMP180;1474;51.460;7.150;2023-10-19T20:25:00;97975.00;;;18.70
80581;BMP180;1474;51.460;7.150;2023-10-19T20:27:26;97979.00;;;18.70
80581;BMP180;1474;51.460;7.150;2023-10-19T20:29:52;97978.00;;;18.70
80581;BMP180;1474;51.460;7.150;2023-10-19T20:32:20;97978.00;;;18.70
80581;BMP180;1474;51.460;7.150;2023-10-19T20:34:46;97977.00;;;18.70
80581;BMP180;1474;51.460;7.150;2023-10-19T20:37:11;97972.00;;;18.70
80581;BMP180;1474;51.460;7.150;2023-10-19T20:39:37;97960.00;;;18.70
80581;BMP180;1474;51.460;7.150;2023-10-19T20:42:03;97951.00;;;18.70
80581;BMP180;1474;51.460;7.150;2023-10-19T20:44:32;97962.00;;;18.70
80581;BMP180;1474;51.460;7.150;2023-10-19T20:47:07;97955.00;;;18.70
80581;BMP180;1474;51.460;7.150;2023-10-19T20:49:36;97953.00;;;18.70
80581;BMP180;1474;51.460;7.150;2023-10-19T20:52:04;97945.00;;;18.70
80581;BMP180;1474;51.460;7.150;2023-10-19T20:54:30;97931.00;;;18.70
80581;BMP180;1474;51.460;7.150;2023-10-19T20:56:56;97926.00;;;18.70
80581;BMP180;1474;51.460;7.150;2023-10-19T20:59:22;97926.00;;;18.70
80581;BMP180;1474;51.460;7.150;2023-10-19T21:01:49;97919.00;;;18.70
80581;BMP180;1474;51.460;7.150;2023-10-19T21:04:15;97910.00;;;18.70
80581;BMP180;1474;51.460;7.150;2023-10-19T21:06:41;97892.00;;;18.70
80581;BMP180;1474;51.460;7.150;2023-10-19T21:09:08;97883.00;;;18.70
80581;BMP180;1474;51.460;7.150;2023-10-19T21:11:37;97883.00;;;18.70
80581;BMP180;1474;51.460;7.150;2023-10-19T21:14:03;97868.00;;;18.70
80581;BMP180;1474;51.460;7.150;2023-10-19T21:16:30;97864.00;;;18.70
80581;BMP180;1474;51.460;7.150;2023-10-19T21:18:57;97857.00;;;18.70
80581;BMP180;1474;51.460;7.150;2023-10-19T21:21:23;97856.00;;;18.70
80581;BMP180;1474;51.460;7.150;2023-10-19T21:23:49;97855.00;;;18.70
80581;BMP180;1474;51.460;7.150;2023-10-19T21:26:16;97869.00;;;18.70
80581;BMP180;1474;51.460;7.150;2023-10-19T21:28:42;97871.00;;;18.70
80581;BMP180;1474;51.460;7.150;2023-10-19T21:31:09;97870.00;;;18.70
80581;BMP180;1474;51.460;7.150;2023-10-19T21:33:35;97862.00;;;18.70
80581;BMP180;1474;51.460;7.150;2023-10-19T21:36:03;97855.00;;;18.70
80581;BMP180;1474;51.460;7.150;2023-10-19T21:38:31;97851.00;;;18.70
80581;BMP180;1474;51.460;7.150;2023-10-19T21:40:58;97857.00;;;18.70
80581;BMP180;1474;51.460;7.150;2023-10-19T21:43:24;97841.00;;;18.60
80581;BMP180;1474;51.460;7.150;2023-10-19T21:45:50;97845.00;;;18.70
80581;BMP180;1474;51.460;7.150;2023-10-19T21:48:16;97845.00;;;18.60
80581;BMP180;1474;51.460;7.150;2023-10-19T21:50:43;97848.00;;;18.70
80581;BMP180;1474;51.460;7.150;2023-10-19T21:53:09;97842.00;;;18.60
80581;BMP180;1474;51.460;7.150;2023-10-19T21:55:35;97846.00;;;18.60
80581;BMP180;1474;51.460;7.150;2023-10-19T21:58:02;97849.00;;;18.60
80581;BMP180;1474;51.460;7.150;2023-10-19T22:00:29;97840.00;;;18.60